sensor_id;sensor_type;location;lat;lon;timestamp;temperature;humidity
21580;DHT22;10951;59.656;9.666;2023-01-05T00:01:46;-2.70;99.90
21580;DHT22;10951;59.656;9.666;2023-01-05T00:04:13;-2.70;99.90
21580;DHT22;10951;59.656;9.666;2023-01-05T00:06:41;-2.60;99.90
21580;DHT22;10951;59.656;9.666;2023-01-05T00:09:11;-2.60;99.90
21580;DHT22;10951;59.656;9.666;2023-01-05T00:11:38;-2.60;99.90
21580;DHT22;10951;59.656;9.666;2023-01-05T00:14:27;-2.60;99.90
21580;DHT22;10951;59.656;9.666;2023-01-05T00:17:16;-2.70;99.90
21580;DHT22;10951;59.656;9.666;2023-01-05T00:20:03;-2.70;99.90
21580;DHT22;10951;59.656;9.666;2023-01-05T00:22:52;-2.70;99.90
21580;DHT22;10951;59.656;9.666;2023-01-05T00:25:24;-2.70;99.90
21580;DHT22;10951;59.656;9.666;2023-01-05T00:27:52;-2.70;99.90
21580;DHT22;10951;59.656;9.666;2023-01-05T00:30:22;-2.70;99.90
21580;DHT22;10951;59.656;9.666;2023-01-05T00:32:50;-2.70;99.90
21580;DHT22;10951;59.656;9.666;2023-01-05T00:35:17;-2.70;99.90
21580;DHT22;10951;59.656;9.666;2023-01-05T00:37:45;-2.70;99.90
21580;DHT22;10951;59.656;9.666;2023-01-05T00:40:15;-2.70;99.90
21580;DHT22;10951;59.656;9.666;2023-01-05T00:42:42;-2.70;99.90
21580;DHT22;10951;59.656;9.666;2023-01-05T00:45:11;-2.70;99.90
21580;DHT22;10951;59.656;9.666;2023-01-05T00:47:39;-2.60;99.90
21580;DHT22;10951;59.656;9.666;2023-01-05T00:50:08;-2.70;99.90
21580;DHT22;10951;59.656;9.666;2023-01-05T00:52:35;-2.60;99.90
21580;DHT22;10951;59.656;9.666;2023-01-05T00:55:02;-2.70;99.90
21580;DHT22;10951;59.656;9.666;2023-01-05T00:57:29;-2.70;99.90
21580;DHT22;10951;59.656;9.666;2023-01-05T00:59:56;-2.70;99.90
21580;DHT22;10951;59.656;9.666;2023-01-05T01:02:23;-2.70;99.90
21580;DHT22;10951;59.656;9.666;2023-01-05T01:04:50;-2.70;99.90
21580;DHT22;10951;59.656;9.666;2023-01-05T01:07:17;-2.70;99.90
21580;DHT22;10951;59.656;9.666;2023-01-05T01:09:44;-2.70;99.90
21580;DHT22;10951;59.656;9.666;2023-01-05T01:12:11;-2.70;99.90
21580;DHT22;10951;59.656;9.666;2023-01-05T01:14:38;-2.70;99.90
21580;DHT22;10951;59.656;9.666;2023-01-05T01:17:05;-2.70;99.90
21580;DHT22;10951;59.656;9.666;2023-01-05T01:19:32;-2.70;99.90
21580;DHT22;10951;59.656;9.666;2023-01-05T01:21:59;-2.70;99.90
21580;DHT22;10951;59.656;9.666;2023-01-05T01:24:27;-2.70;99.90
21580;DHT22;10951;59.656;9.666;2023-01-05T01:26:54;-2.80;99.90
21580;DHT22;10951;59.656;9.666;2023-01-05T01:29:22;-2.80;99.90
21580;DHT22;10951;59.656;9.666;2023-01-05T01:31:52;-2.80;99.90
21580;DHT22;10951;59.656;9.666;2023-01-05T01:34:19;-2.80;99.90
21580;DHT22;10951;59.656;9.666;2023-01-05T01:36:47;-2.80;99.90
21580;DHT22;10951;59.656;9.666;2023-01-05T01:39:17;-2.80;99.90
21580;DHT22;10951;59.656;9.666;2023-01-05T01:41:47;-2.80;99.90
21580;DHT22;10951;59.656;9.666;2023-01-05T01:45:34;-2.80;99.90
21580;DHT22;10951;59.656;9.666;2023-01-05T01:50:17;-2.90;99.90
21580;DHT22;10951;59.656;9.666;2023-01-05T01:52:47;-3.00;99.90
21580;DHT22;10951;59.656;9.666;2023-01-05T01:55:15;-3.00;99.90
21580;DHT22;10951;59.656;9.666;2023-01-05T01:57:44;-3.00;99.90
21580;DHT22;10951;59.656;9.666;2023-01-05T02:00:12;-3.10;99.90
21580;DHT22;10951;59.656;9.666;2023-01-05T02:02:45;-3.00;99.90
21580;DHT22;10951;59.656;9.666;2023-01-05T02:05:16;-3.10;99.90
21580;DHT22;10951;59.656;9.666;2023-01-05T02:07:46;-3.10;99.90
21580;DHT22;10951;59.656;9.666;2023-01-05T02:10:18;-3.10;99.90
21580;DHT22;10951;59.656;9.666;2023-01-05T02:13:40;-3.10;99.90
21580;DHT22;10951;59.656;9.666;2023-01-05T02:36:33;-3.10;99.90
21580;DHT22;10951;59.656;9.666;2023-01-05T02:39:15;-3.20;99.90
21580;DHT22;10951;59.656;9.666;2023-01-05T02:42:12;-3.10;99.90
21580;DHT22;10951;59.656;9.666;2023-01-05T02:44:42;-3.20;99.90
21580;DHT22;10951;59.656;9.666;2023-01-05T02:55:48;-3.10;99.90
21580;DHT22;10951;59.656;9.666;2023-01-05T02:58:30;-3.20;99.90
21580;DHT22;10951;59.656;9.666;2023-01-05T03:00:59;-3.10;99.90
21580;DHT22;10951;59.656;9.666;2023-01-05T03:03:41;-3.20;99.90
21580;DHT22;10951;59.656;9.666;2023-01-05T03:06:19;-3.20;99.90
21580;DHT22;10951;59.656;9.666;2023-01-05T03:08:51;-3.10;99.90
21580;DHT22;10951;59.656;9.666;2023-01-05T03:11:21;-3.10;99.90
21580;DHT22;10951;59.656;9.666;2023-01-05T03:14:25;-3.10;99.90
21580;DHT22;10951;59.656;9.666;2023-01-05T03:16:55;-3.10;99.90
21580;DHT22;10951;59.656;9.666;2023-01-05T03:19:25;-3.10;99.90
21580;DHT22;10951;59.656;9.666;2023-01-05T03:22:16;-3.10;99.90
21580;DHT22;10951;59.656;9.666;2023-01-05T03:25:05;-3.10;99.90
21580;DHT22;10951;59.656;9.666;2023-01-05T03:27:54;-3.20;99.90
21580;DHT22;10951;59.656;9.666;2023-01-05T03:30:51;-3.20;99.90
21580;DHT22;10951;59.656;9.666;2023-01-05T03:33:48;-3.20;99.90
21580;DHT22;10951;59.656;9.666;2023-01-05T03:36:43;-3.10;99.90
21580;DHT22;10951;59.656;9.666;2023-01-05T03:39:12;-3.10;99.90
21580;DHT22;10951;59.656;9.666;2023-01-05T03:41:39;-3.20;99.90
21580;DHT22;10951;59.656;9.666;2023-01-05T03:44:07;-3.20;99.90
21580;DHT22;10951;59.656;9.666;2023-01-05T03:46:38;-3.20;99.90
21580;DHT22;10951;59.656;9.666;2023-01-05T03:49:07;-3.20;99.90
21580;DHT22;10951;59.656;9.666;2023-01-05T03:51:34;-3.20;99.90
21580;DHT22;10951;59.656;9.666;2023-01-05T03:54:08;-3.20;99.90
21580;DHT22;10951;59.656;9.666;2023-01-05T03:56:35;-3.20;99.90
21580;DHT22;10951;59.656;9.666;2023-01-05T03:59:02;-3.20;99.90
21580;DHT22;10951;59.656;9.666;2023-01-05T04:01:29;-3.30;99.90
21580;DHT22;10951;59.656;9.666;2023-01-05T04:03:58;-3.30;99.90
21580;DHT22;10951;59.656;9.666;2023-01-05T04:06:24;-3.30;99.90
21580;DHT22;10951;59.656;9.666;2023-01-05T04:08:51;-3.30;99.90
21580;DHT22;10951;59.656;9.666;2023-01-05T04:11:21;-3.30;99.90
21580;DHT22;10951;59.656;9.666;2023-01-05T04:13:56;-3.30;99.90
21580;DHT22;10951;59.656;9.666;2023-01-05T04:16:23;-3.30;99.90
21580;DHT22;10951;59.656;9.666;2023-01-05T04:18:54;-3.30;99.90
21580;DHT22;10951;59.656;9.666;2023-01-05T04:21:21;-3.30;99.90
21580;DHT22;10951;59.656;9.666;2023-01-05T04:23:51;-3.30;99.90
21580;DHT22;10951;59.656;9.666;2023-01-05T04:26:18;-3.30;99.90
21580;DHT22;10951;59.656;9.666;2023-01-05T04:28:48;-3.30;99.90
21580;DHT22;10951;59.656;9.666;2023-01-05T04:31:17;-3.30;99.90
21580;DHT22;10951;59.656;9.666;2023-01-05T04:33:44;-3.30;99.90
21580;DHT22;10951;59.656;9.666;2023-01-05T04:36:16;-3.30;99.90
21580;DHT22;10951;59.656;9.666;2023-01-05T04:38:43;-3.30;99.90
21580;DHT22;10951;59.656;9.666;2023-01-05T04:41:10;-3.30;99.90
21580;DHT22;10951;59.656;9.666;2023-01-05T04:43:39;-3.30;99.90
21580;DHT22;10951;59.656;9.666;2023-01-05T04:46:07;-3.30;99.90
21580;DHT22;10951;59.656;9.666;2023-01-05T04:48:35;-3.30;99.90
21580;DHT22;10951;59.656;9.666;2023-01-05T04:51:03;-3.30;99.90
21580;DHT22;10951;59.656;9.666;2023-01-05T04:53:34;-3.30;99.90
21580;DHT22;10951;59.656;9.666;2023-01-05T04:56:03;-3.30;99.90
21580;DHT22;10951;59.656;9.666;2023-01-05T04:58:36;-3.40;99.90
21580;DHT22;10951;59.656;9.666;2023-01-05T05:01:03;-3.40;99.90
21580;DHT22;10951;59.656;9.666;2023-01-05T05:03:33;-3.40;99.90
21580;DHT22;10951;59.656;9.666;2023-01-05T05:06:02;-3.40;99.90
21580;DHT22;10951;59.656;9.666;2023-01-05T05:08:30;-3.40;99.90
21580;DHT22;10951;59.656;9.666;2023-01-05T05:10:59;-3.30;99.90
21580;DHT22;10951;59.656;9.666;2023-01-05T05:13:29;-3.30;99.90
21580;DHT22;10951;59.656;9.666;2023-01-05T05:15:58;-3.30;99.90
21580;DHT22;10951;59.656;9.666;2023-01-05T05:18:27;-3.30;99.90
21580;DHT22;10951;59.656;9.666;2023-01-05T05:20:54;-3.30;99.90
21580;DHT22;10951;59.656;9.666;2023-01-05T05:23:26;-3.40;99.90
21580;DHT22;10951;59.656;9.666;2023-01-05T05:25:53;-3.30;99.90
21580;DHT22;10951;59.656;9.666;2023-01-05T05:28:22;-3.40;99.90
21580;DHT22;10951;59.656;9.666;2023-01-05T05:30:54;-3.40;99.90
21580;DHT22;10951;59.656;9.666;2023-01-05T05:33:23;-3.40;99.90
21580;DHT22;10951;59.656;9.666;2023-01-05T05:35:50;-3.30;99.90
21580;DHT22;10951;59.656;9.666;2023-01-05T05:38:17;-3.30;99.90
21580;DHT22;10951;59.656;9.666;2023-01-05T05:40:46;-3.30;99.90
21580;DHT22;10951;59.656;9.666;2023-01-05T05:43:13;-3.40;99.90
21580;DHT22;10951;59.656;9.666;2023-01-05T05:45:40;-3.30;99.90
21580;DHT22;10951;59.656;9.666;2023-01-05T05:48:15;-3.30;99.90
21580;DHT22;10951;59.656;9.666;2023-01-05T05:50:43;-3.30;99.90
21580;DHT22;10951;59.656;9.666;2023-01-05T05:53:10;-3.30;99.90
21580;DHT22;10951;59.656;9.666;2023-01-05T05:55:37;-3.30;99.90
21580;DHT22;10951;59.656;9.666;2023-01-05T05:58:04;-3.30;99.90
21580;DHT22;10951;59.656;9.666;2023-01-05T06:00:31;-3.30;99.90
21580;DHT22;10951;59.656;9.666;2023-01-05T06:02:57;-3.30;99.90
21580;DHT22;10951;59.656;9.666;2023-01-05T06:05:24;-3.30;99.90
21580;DHT22;10951;59.656;9.666;2023-01-05T06:07:51;-3.30;99.90
21580;DHT22;10951;59.656;9.666;2023-01-05T06:10:18;-3.30;99.90
21580;DHT22;10951;59.656;9.666;2023-01-05T06:12:45;-3.30;99.90
21580;DHT22;10951;59.656;9.666;2023-01-05T06:15:12;-3.30;99.90
21580;DHT22;10951;59.656;9.666;2023-01-05T06:17:39;-3.30;99.90
21580;DHT22;10951;59.656;9.666;2023-01-05T06:20:07;-3.30;99.90
21580;DHT22;10951;59.656;9.666;2023-01-05T06:22:35;-3.30;99.90
21580;DHT22;10951;59.656;9.666;2023-01-05T06:25:02;-3.30;99.90
21580;DHT22;10951;59.656;9.666;2023-01-05T06:27:29;-3.30;99.90
21580;DHT22;10951;59.656;9.666;2023-01-05T06:29:56;-3.40;99.90
21580;DHT22;10951;59.656;9.666;2023-01-05T06:32:23;-3.30;99.90
21580;DHT22;10951;59.656;9.666;2023-01-05T06:34:50;-3.40;99.90
21580;DHT22;10951;59.656;9.666;2023-01-05T06:37:17;-3.30;99.90
21580;DHT22;10951;59.656;9.666;2023-01-05T06:39:44;-3.40;99.90
21580;DHT22;10951;59.656;9.666;2023-01-05T06:42:11;-3.40;99.90
21580;DHT22;10951;59.656;9.666;2023-01-05T06:44:37;-3.40;99.90
21580;DHT22;10951;59.656;9.666;2023-01-05T06:47:04;-3.30;99.90
21580;DHT22;10951;59.656;9.666;2023-01-05T06:49:31;-3.30;99.90
21580;DHT22;10951;59.656;9.666;2023-01-05T06:51:58;-3.30;99.90
21580;DHT22;10951;59.656;9.666;2023-01-05T06:54:25;-3.30;99.90
21580;DHT22;10951;59.656;9.666;2023-01-05T06:56:52;-3.30;99.90
21580;DHT22;10951;59.656;9.666;2023-01-05T06:59:18;-3.30;99.90
21580;DHT22;10951;59.656;9.666;2023-01-05T07:01:45;-3.30;99.90
21580;DHT22;10951;59.656;9.666;2023-01-05T07:04:12;-3.30;99.90
21580;DHT22;10951;59.656;9.666;2023-01-05T07:06:39;-3.30;99.90
21580;DHT22;10951;59.656;9.666;2023-01-05T07:09:06;-3.30;99.90
21580;DHT22;10951;59.656;9.666;2023-01-05T07:11:33;-3.30;99.90
21580;DHT22;10951;59.656;9.666;2023-01-05T07:14:00;-3.30;99.90
21580;DHT22;10951;59.656;9.666;2023-01-05T07:16:27;-3.30;99.90
21580;DHT22;10951;59.656;9.666;2023-01-05T07:18:54;-3.30;99.90
21580;DHT22;10951;59.656;9.666;2023-01-05T07:21:21;-3.40;99.90
21580;DHT22;10951;59.656;9.666;2023-01-05T07:23:48;-3.40;99.90
21580;DHT22;10951;59.656;9.666;2023-01-05T07:26:14;-3.40;99.90
21580;DHT22;10951;59.656;9.666;2023-01-05T07:28:41;-3.40;99.90
21580;DHT22;10951;59.656;9.666;2023-01-05T07:31:08;-3.40;99.90
21580;DHT22;10951;59.656;9.666;2023-01-05T07:33:35;-3.40;99.90
21580;DHT22;10951;59.656;9.666;2023-01-05T07:36:06;-3.50;99.90
21580;DHT22;10951;59.656;9.666;2023-01-05T07:38:33;-3.40;99.90
21580;DHT22;10951;59.656;9.666;2023-01-05T07:41:01;-3.40;99.90
21580;DHT22;10951;59.656;9.666;2023-01-05T07:43:28;-3.40;99.90
21580;DHT22;10951;59.656;9.666;2023-01-05T07:45:58;-3.50;99.90
21580;DHT22;10951;59.656;9.666;2023-01-05T07:48:25;-3.40;99.90
21580;DHT22;10951;59.656;9.666;2023-01-05T07:50:57;-3.40;99.90
21580;DHT22;10951;59.656;9.666;2023-01-05T07:53:24;-3.40;99.90
21580;DHT22;10951;59.656;9.666;2023-01-05T07:55:56;-3.40;99.90
21580;DHT22;10951;59.656;9.666;2023-01-05T07:58:24;-3.40;99.90
21580;DHT22;10951;59.656;9.666;2023-01-05T08:00:51;-3.40;99.90
21580;DHT22;10951;59.656;9.666;2023-01-05T08:03:18;-3.40;99.90
21580;DHT22;10951;59.656;9.666;2023-01-05T08:05:45;-3.40;99.90
21580;DHT22;10951;59.656;9.666;2023-01-05T08:08:14;-3.40;99.90
21580;DHT22;10951;59.656;9.666;2023-01-05T08:10:49;-3.40;99.90
21580;DHT22;10951;59.656;9.666;2023-01-05T08:13:16;-3.40;99.90
21580;DHT22;10951;59.656;9.666;2023-01-05T08:16:01;-3.40;99.90
21580;DHT22;10951;59.656;9.666;2023-01-05T08:18:28;-3.50;99.90
21580;DHT22;10951;59.656;9.666;2023-01-05T08:20:57;-3.50;99.90
21580;DHT22;10951;59.656;9.666;2023-01-05T08:23:26;-3.50;99.90
21580;DHT22;10951;59.656;9.666;2023-01-05T08:25:54;-3.50;99.90
21580;DHT22;10951;59.656;9.666;2023-01-05T08:28:23;-3.50;99.90
21580;DHT22;10951;59.656;9.666;2023-01-05T08:31:07;-3.40;99.90
21580;DHT22;10951;59.656;9.666;2023-01-05T08:33:35;-3.40;99.90
21580;DHT22;10951;59.656;9.666;2023-01-05T08:36:07;-3.40;99.90
21580;DHT22;10951;59.656;9.666;2023-01-05T08:38:34;-3.40;99.90
21580;DHT22;10951;59.656;9.666;2023-01-05T08:41:01;-3.40;99.90
21580;DHT22;10951;59.656;9.666;2023-01-05T08:43:28;-3.40;99.90
21580;DHT22;10951;59.656;9.666;2023-01-05T08:45:55;-3.50;99.90
21580;DHT22;10951;59.656;9.666;2023-01-05T08:48:22;-3.50;99.90
21580;DHT22;10951;59.656;9.666;2023-01-05T08:50:48;-3.40;99.90
21580;DHT22;10951;59.656;9.666;2023-01-05T08:53:15;-3.40;99.90
21580;DHT22;10951;59.656;9.666;2023-01-05T08:55:42;-3.40;99.90
21580;DHT22;10951;59.656;9.666;2023-01-05T08:58:09;-3.40;99.90
21580;DHT22;10951;59.656;9.666;2023-01-05T09:00:36;-3.30;99.90
21580;DHT22;10951;59.656;9.666;2023-01-05T09:03:03;-3.30;99.90
21580;DHT22;10951;59.656;9.666;2023-01-05T09:05:31;-3.30;99.90
21580;DHT22;10951;59.656;9.666;2023-01-05T09:07:57;-3.30;99.90
21580;DHT22;10951;59.656;9.666;2023-01-05T09:10:24;-3.30;99.90
21580;DHT22;10951;59.656;9.666;2023-01-05T09:12:51;-3.20;99.90
21580;DHT22;10951;59.656;9.666;2023-01-05T09:15:18;-3.30;99.90
21580;DHT22;10951;59.656;9.666;2023-01-05T09:17:45;-3.20;99.90
21580;DHT22;10951;59.656;9.666;2023-01-05T09:20:12;-3.20;99.90
21580;DHT22;10951;59.656;9.666;2023-01-05T09:22:38;-3.30;99.90
21580;DHT22;10951;59.656;9.666;2023-01-05T09:25:05;-3.20;99.90
21580;DHT22;10951;59.656;9.666;2023-01-05T09:27:32;-3.20;99.90
21580;DHT22;10951;59.656;9.666;2023-01-05T09:29:59;-3.30;99.90
21580;DHT22;10951;59.656;9.666;2023-01-05T09:32:26;-3.20;99.90
21580;DHT22;10951;59.656;9.666;2023-01-05T09:34:53;-3.20;99.90
21580;DHT22;10951;59.656;9.666;2023-01-05T09:37:20;-3.20;99.90
21580;DHT22;10951;59.656;9.666;2023-01-05T09:39:47;-3.20;99.90
21580;DHT22;10951;59.656;9.666;2023-01-05T09:42:17;-3.20;99.90
21580;DHT22;10951;59.656;9.666;2023-01-05T09:44:46;-3.20;99.90
21580;DHT22;10951;59.656;9.666;2023-01-05T09:47:35;-3.20;99.90
21580;DHT22;10951;59.656;9.666;2023-01-05T09:50:16;-3.30;99.90
21580;DHT22;10951;59.656;9.666;2023-01-05T09:52:44;-3.30;99.90
21580;DHT22;10951;59.656;9.666;2023-01-05T09:55:15;-3.30;99.90
21580;DHT22;10951;59.656;9.666;2023-01-05T09:58:15;-3.20;99.90
21580;DHT22;10951;59.656;9.666;2023-01-05T10:00:50;-3.20;99.90
21580;DHT22;10951;59.656;9.666;2023-01-05T10:03:22;-3.20;99.90
21580;DHT22;10951;59.656;9.666;2023-01-05T10:06:13;-3.10;99.90
21580;DHT22;10951;59.656;9.666;2023-01-05T10:08:47;-3.10;99.90
21580;DHT22;10951;59.656;9.666;2023-01-05T10:11:21;-3.10;99.90
21580;DHT22;10951;59.656;9.666;2023-01-05T10:14:13;-3.10;99.90
21580;DHT22;10951;59.656;9.666;2023-01-05T10:16:43;-3.10;99.90
21580;DHT22;10951;59.656;9.666;2023-01-05T10:19:13;-3.20;99.90
21580;DHT22;10951;59.656;9.666;2023-01-05T10:24:22;-3.10;99.90
21580;DHT22;10951;59.656;9.666;2023-01-05T10:27:17;-3.10;99.90
21580;DHT22;10951;59.656;9.666;2023-01-05T10:45:00;-2.90;99.90
21580;DHT22;10951;59.656;9.666;2023-01-05T10:47:30;-3.00;99.90
21580;DHT22;10951;59.656;9.666;2023-01-05T10:49:58;-3.00;99.90
21580;DHT22;10951;59.656;9.666;2023-01-05T10:52:26;-2.90;99.90
21580;DHT22;10951;59.656;9.666;2023-01-05T10:55:00;-2.90;99.90
21580;DHT22;10951;59.656;9.666;2023-01-05T11:02:36;-3.00;99.90
21580;DHT22;10951;59.656;9.666;2023-01-05T11:07:55;-2.90;99.90
21580;DHT22;10951;59.656;9.666;2023-01-05T11:10:40;-2.80;99.90
21580;DHT22;10951;59.656;9.666;2023-01-05T11:13:38;-2.80;99.90
21580;DHT22;10951;59.656;9.666;2023-01-05T11:16:18;-2.80;99.90
21580;DHT22;10951;59.656;9.666;2023-01-05T11:18:55;-2.80;99.90
21580;DHT22;10951;59.656;9.666;2023-01-05T11:21:27;-2.90;99.90
21580;DHT22;10951;59.656;9.666;2023-01-05T11:23:58;-2.90;99.90
21580;DHT22;10951;59.656;9.666;2023-01-05T11:26:29;-3.00;99.90
21580;DHT22;10951;59.656;9.666;2023-01-05T11:34:29;-3.00;99.90
21580;DHT22;10951;59.656;9.666;2023-01-05T11:37:03;-3.00;99.90
21580;DHT22;10951;59.656;9.666;2023-01-05T11:39:40;-3.00;99.90
21580;DHT22;10951;59.656;9.666;2023-01-05T11:42:18;-3.00;99.90
21580;DHT22;10951;59.656;9.666;2023-01-05T11:44:59;-3.00;99.90
21580;DHT22;10951;59.656;9.666;2023-01-05T11:52:45;-2.80;99.90
21580;DHT22;10951;59.656;9.666;2023-01-05T11:57:47;-2.80;99.90
21580;DHT22;10951;59.656;9.666;2023-01-05T12:00:24;-2.70;99.90
21580;DHT22;10951;59.656;9.666;2023-01-05T12:03:21;-2.70;99.90
21580;DHT22;10951;59.656;9.666;2023-01-05T12:05:55;-2.70;99.90
21580;DHT22;10951;59.656;9.666;2023-01-05T12:08:30;-2.70;99.90
21580;DHT22;10951;59.656;9.666;2023-01-05T12:11:17;-2.70;99.90
21580;DHT22;10951;59.656;9.666;2023-01-05T12:14:00;-2.80;99.90
21580;DHT22;10951;59.656;9.666;2023-01-05T12:38:38;-2.80;99.90
21580;DHT22;10951;59.656;9.666;2023-01-05T12:49:20;-2.90;99.90
21580;DHT22;10951;59.656;9.666;2023-01-05T12:52:06;-2.80;99.90
21580;DHT22;10951;59.656;9.666;2023-01-05T12:54:45;-2.90;99.90
21580;DHT22;10951;59.656;9.666;2023-01-05T12:57:28;-2.80;99.90
21580;DHT22;10951;59.656;9.666;2023-01-05T13:00:10;-2.80;99.90
21580;DHT22;10951;59.656;9.666;2023-01-05T13:02:42;-2.80;99.90
21580;DHT22;10951;59.656;9.666;2023-01-05T13:05:21;-2.80;99.90
21580;DHT22;10951;59.656;9.666;2023-01-05T13:07:59;-2.90;99.90
21580;DHT22;10951;59.656;9.666;2023-01-05T13:13:08;-2.90;99.90
21580;DHT22;10951;59.656;9.666;2023-01-05T13:16:03;-2.90;99.90
21580;DHT22;10951;59.656;9.666;2023-01-05T13:18:34;-3.00;99.90
21580;DHT22;10951;59.656;9.666;2023-01-05T13:21:04;-3.00;99.90
21580;DHT22;10951;59.656;9.666;2023-01-05T13:23:43;-3.00;99.90
21580;DHT22;10951;59.656;9.666;2023-01-05T13:26:17;-3.00;99.90
21580;DHT22;10951;59.656;9.666;2023-01-05T13:28:51;-3.00;99.90
21580;DHT22;10951;59.656;9.666;2023-01-05T13:34:24;-2.90;99.90
21580;DHT22;10951;59.656;9.666;2023-01-05T13:37:03;-2.90;99.90
21580;DHT22;10951;59.656;9.666;2023-01-05T13:39:42;-2.90;99.90
21580;DHT22;10951;59.656;9.666;2023-01-05T13:48:46;-3.00;99.90
21580;DHT22;10951;59.656;9.666;2023-01-05T13:51:59;-2.90;99.90
21580;DHT22;10951;59.656;9.666;2023-01-05T13:54:44;-2.90;99.90
21580;DHT22;10951;59.656;9.666;2023-01-05T13:57:29;-3.00;99.90
21580;DHT22;10951;59.656;9.666;2023-01-05T14:00:03;-3.00;99.90
21580;DHT22;10951;59.656;9.666;2023-01-05T14:02:42;-3.00;99.90
21580;DHT22;10951;59.656;9.666;2023-01-05T14:05:27;-3.00;99.90
21580;DHT22;10951;59.656;9.666;2023-01-05T14:07:58;-3.10;99.90
21580;DHT22;10951;59.656;9.666;2023-01-05T14:10:28;-3.00;99.90
21580;DHT22;10951;59.656;9.666;2023-01-05T14:12:55;-3.00;99.90
21580;DHT22;10951;59.656;9.666;2023-01-05T14:15:26;-3.00;99.90
21580;DHT22;10951;59.656;9.666;2023-01-05T14:17:56;-3.00;99.90
21580;DHT22;10951;59.656;9.666;2023-01-05T14:20:45;-3.00;99.90
21580;DHT22;10951;59.656;9.666;2023-01-05T14:26:05;-3.00;99.90
21580;DHT22;10951;59.656;9.666;2023-01-05T14:36:30;-3.20;99.90
21580;DHT22;10951;59.656;9.666;2023-01-05T14:39:23;-3.20;99.90
21580;DHT22;10951;59.656;9.666;2023-01-05T14:45:28;-3.30;99.90
21580;DHT22;10951;59.656;9.666;2023-01-05T14:48:01;-3.20;99.90
21580;DHT22;10951;59.656;9.666;2023-01-05T14:50:40;-3.20;99.90
21580;DHT22;10951;59.656;9.666;2023-01-05T14:55:39;-3.00;99.90
21580;DHT22;10951;59.656;9.666;2023-01-05T14:58:10;-3.00;99.90
21580;DHT22;10951;59.656;9.666;2023-01-05T15:00:56;-3.00;99.90
21580;DHT22;10951;59.656;9.666;2023-01-05T15:03:38;-3.10;99.90
21580;DHT22;10951;59.656;9.666;2023-01-05T15:32:25;-3.10;99.90
21580;DHT22;10951;59.656;9.666;2023-01-05T15:37:37;-3.20;99.90
21580;DHT22;10951;59.656;9.666;2023-01-05T15:42:51;-3.20;99.90
21580;DHT22;10951;59.656;9.666;2023-01-05T15:45:27;-3.20;99.90
21580;DHT22;10951;59.656;9.666;2023-01-05T15:48:04;-3.20;99.90
21580;DHT22;10951;59.656;9.666;2023-01-05T15:50:45;-3.20;99.90
21580;DHT22;10951;59.656;9.666;2023-01-05T15:53:23;-3.20;99.90
21580;DHT22;10951;59.656;9.666;2023-01-05T15:55:50;-3.20;99.90
21580;DHT22;10951;59.656;9.666;2023-01-05T15:58:19;-3.10;99.90
21580;DHT22;10951;59.656;9.666;2023-01-05T16:03:49;-3.10;99.90
21580;DHT22;10951;59.656;9.666;2023-01-05T16:08:48;-3.10;99.90
21580;DHT22;10951;59.656;9.666;2023-01-05T16:11:32;-3.10;99.90
21580;DHT22;10951;59.656;9.666;2023-01-05T16:14:05;-3.20;99.90
21580;DHT22;10951;59.656;9.666;2023-01-05T16:16:39;-3.10;99.90
21580;DHT22;10951;59.656;9.666;2023-01-05T16:19:38;-3.20;99.90
21580;DHT22;10951;59.656;9.666;2023-01-05T16:27:32;-3.30;99.90
21580;DHT22;10951;59.656;9.666;2023-01-05T16:30:34;-3.20;99.90
21580;DHT22;10951;59.656;9.666;2023-01-05T16:35:42;-3.20;99.90
21580;DHT22;10951;59.656;9.666;2023-01-05T16:40:53;-3.40;99.90
21580;DHT22;10951;59.656;9.666;2023-01-05T16:48:52;-3.30;99.90
21580;DHT22;10951;59.656;9.666;2023-01-05T16:51:22;-3.30;99.90
21580;DHT22;10951;59.656;9.666;2023-01-05T16:53:54;-3.30;99.90
21580;DHT22;10951;59.656;9.666;2023-01-05T16:59:11;-3.40;99.90
21580;DHT22;10951;59.656;9.666;2023-01-05T17:01:49;-3.40;99.90
21580;DHT22;10951;59.656;9.666;2023-01-05T17:04:17;-3.40;99.90
21580;DHT22;10951;59.656;9.666;2023-01-05T17:06:45;-3.30;99.90
21580;DHT22;10951;59.656;9.666;2023-01-05T17:09:29;-3.30;99.90
21580;DHT22;10951;59.656;9.666;2023-01-05T17:11:57;-3.30;99.90
21580;DHT22;10951;59.656;9.666;2023-01-05T17:14:25;-3.40;99.90
21580;DHT22;10951;59.656;9.666;2023-01-05T17:16:53;-3.40;99.90
21580;DHT22;10951;59.656;9.666;2023-01-05T17:19:20;-3.40;99.90
21580;DHT22;10951;59.656;9.666;2023-01-05T17:21:55;-3.30;99.90
21580;DHT22;10951;59.656;9.666;2023-01-05T17:24:23;-3.30;99.90
21580;DHT22;10951;59.656;9.666;2023-01-05T17:26:51;-3.30;99.90
21580;DHT22;10951;59.656;9.666;2023-01-05T17:29:23;-3.30;99.90
21580;DHT22;10951;59.656;9.666;2023-01-05T17:31:51;-3.30;99.90
21580;DHT22;10951;59.656;9.666;2023-01-05T17:34:19;-3.30;99.90
21580;DHT22;10951;59.656;9.666;2023-01-05T17:36:47;-3.30;99.90
21580;DHT22;10951;59.656;9.666;2023-01-05T17:39:19;-3.40;99.90
21580;DHT22;10951;59.656;9.666;2023-01-05T17:41:46;-3.30;99.90
21580;DHT22;10951;59.656;9.666;2023-01-05T17:44:13;-3.30;99.90
21580;DHT22;10951;59.656;9.666;2023-01-05T17:46:44;-3.30;99.90
21580;DHT22;10951;59.656;9.666;2023-01-05T17:49:13;-3.30;99.90
21580;DHT22;10951;59.656;9.666;2023-01-05T17:51:40;-3.20;99.90
21580;DHT22;10951;59.656;9.666;2023-01-05T17:54:07;-3.20;99.90
21580;DHT22;10951;59.656;9.666;2023-01-05T17:56:34;-3.20;99.90
21580;DHT22;10951;59.656;9.666;2023-01-05T17:59:02;-3.20;99.90
21580;DHT22;10951;59.656;9.666;2023-01-05T18:01:30;-3.20;99.90
21580;DHT22;10951;59.656;9.666;2023-01-05T18:03:59;-3.30;99.90
21580;DHT22;10951;59.656;9.666;2023-01-05T18:06:26;-3.20;99.90
21580;DHT22;10951;59.656;9.666;2023-01-05T18:08:53;-3.30;99.90
21580;DHT22;10951;59.656;9.666;2023-01-05T18:11:20;-3.30;99.90
21580;DHT22;10951;59.656;9.666;2023-01-05T18:13:47;-3.40;99.90
21580;DHT22;10951;59.656;9.666;2023-01-05T18:16:15;-3.40;99.90
21580;DHT22;10951;59.656;9.666;2023-01-05T18:18:42;-3.40;99.90
21580;DHT22;10951;59.656;9.666;2023-01-05T18:21:09;-3.40;99.90
21580;DHT22;10951;59.656;9.666;2023-01-05T18:23:35;-3.40;99.90
21580;DHT22;10951;59.656;9.666;2023-01-05T18:26:08;-3.40;99.90
21580;DHT22;10951;59.656;9.666;2023-01-05T18:28:36;-3.40;99.90
21580;DHT22;10951;59.656;9.666;2023-01-05T18:31:10;-3.40;99.90
21580;DHT22;10951;59.656;9.666;2023-01-05T18:33:37;-3.50;99.90
21580;DHT22;10951;59.656;9.666;2023-01-05T18:36:06;-3.50;99.90
21580;DHT22;10951;59.656;9.666;2023-01-05T18:38:35;-3.30;99.90
21580;DHT22;10951;59.656;9.666;2023-01-05T18:41:02;-3.40;99.90
21580;DHT22;10951;59.656;9.666;2023-01-05T18:43:31;-3.30;99.90
21580;DHT22;10951;59.656;9.666;2023-01-05T18:45:58;-3.20;99.90
21580;DHT22;10951;59.656;9.666;2023-01-05T18:48:25;-3.20;99.90
21580;DHT22;10951;59.656;9.666;2023-01-05T18:50:52;-3.20;99.90
21580;DHT22;10951;59.656;9.666;2023-01-05T18:53:20;-3.20;99.90
21580;DHT22;10951;59.656;9.666;2023-01-05T18:55:48;-3.20;99.90
21580;DHT22;10951;59.656;9.666;2023-01-05T18:58:15;-3.30;99.90
21580;DHT22;10951;59.656;9.666;2023-01-05T19:00:43;-3.30;99.90
21580;DHT22;10951;59.656;9.666;2023-01-05T19:03:10;-3.30;99.90
21580;DHT22;10951;59.656;9.666;2023-01-05T19:05:41;-3.20;99.90